Time;durP1;ratioP1;P1;durP2;ratioP2;P2;SDS_P1;SDS_P2;PMS_P1;PMS_P2;Temp;Humidity;BMP_temperature;BMP_pressure;BME280_temperature;BME280_humidity;BME280_pressure;Samples;Min_cycle;Max_cycle;Signal;HPM_P1;HPM_P2
2022/03/01 00:00:39;;;;;;;;;;;1.70;86.00;;;;;;5049966;28;20507;-77
2022/03/01 00:03:05;;;;;;;5.97;2.00;;;1.70;86.50;;;;;;5050972;28;19931;-77
2022/03/01 00:05:31;;;;;;;5.00;2.65;;;1.70;85.80;;;;;;5049450;28;20033;-77
2022/03/01 00:07:57;;;;;;;;;;;1.70;85.60;;;;;;5050093;28;20036;-77
2022/03/01 00:10:22;;;;;;;7.63;2.20;;;1.70;85.70;;;;;;5048966;28;19912;-77
2022/03/01 00:12:48;;;;;;;;;;;1.70;86.40;;;;;;5049167;28;20517;-76
2022/03/01 00:15:14;;;;;;;7.18;2.95;;;1.70;86.30;;;;;;5049964;28;20285;-78
2022/03/01 00:17:39;;;;;;;;;;;1.70;85.80;;;;;;5050760;28;20512;-78
2022/03/01 00:20:08;;;;;;;6.40;2.45;;;1.70;85.70;;;;;;5048685;28;19916;-76
2022/03/01 00:22:34;;;;;;;10.27;2.92;;;1.60;85.90;;;;;;5048232;28;20119;-78
2022/03/01 00:25:01;;;;;;;;;;;1.60;86.40;;;;;;5049648;28;20167;-78
2022/03/01 00:27:26;;;;;;;6.18;1.88;;;1.60;86.10;;;;;;5050213;28;19916;-78
2022/03/01 00:29:52;;;;;;;;;;;1.60;87.00;;;;;;5049944;28;20049;-79
2022/03/01 00:32:17;;;;;;;7.07;2.78;;;1.60;85.80;;;;;;5049589;28;19927;-78
2022/03/01 00:34:43;;;;;;;;;;;1.60;86.00;;;;;;5049290;28;20167;-77
2022/03/01 00:37:09;;;;;;;6.95;2.58;;;1.60;86.30;;;;;;5049368;28;19908;-78
2022/03/01 00:39:34;;;;;;;6.15;3.13;;;1.50;86.60;;;;;;5050329;28;20036;-78
2022/03/01 00:42:00;;;;;;;;;;;1.50;86.50;;;;;;5050814;28;20179;-79
2022/03/01 00:44:26;;;;;;;6.15;2.35;;;1.50;86.50;;;;;;5049437;28;19905;-78
2022/03/01 00:46:55;;;;;;;9.00;3.13;;;1.50;86.60;;;;;;5050009;28;20017;-78
2022/03/01 00:49:21;;;;;;;7.90;2.67;;;1.40;87.80;;;;;;5050279;28;20041;-77
2022/03/01 00:51:46;;;;;;;;;;;1.40;87.30;;;;;;5049114;28;20048;-78
2022/03/01 00:54:12;;;;;;;8.25;2.85;;;1.30;88.60;;;;;;5051229;28;20407;-78
2022/03/01 00:56:38;;;;;;;;;;;1.40;89.10;;;;;;5049224;28;20397;-78
2022/03/01 00:59:03;;;;;;;4.93;2.70;;;1.30;88.80;;;;;;5048558;28;20381;-77
2022/03/01 01:01:29;;;;;;;;;;;1.40;88.70;;;;;;5049522;28;20116;-78
2022/03/01 01:03:54;;;;;;;5.65;2.30;;;1.30;89.70;;;;;;5048868;28;19913;-78
2022/03/01 01:06:20;;;;;;;;;;;1.30;89.10;;;;;;5049083;28;20036;-78
2022/03/01 01:08:46;;;;;;;8.10;3.15;;;1.30;88.20;;;;;;5047885;28;19904;-77
2022/03/01 01:11:11;;;;;;;;;;;1.40;87.30;;;;;;5047764;28;20131;-78
2022/03/01 01:13:37;;;;;;;8.65;3.13;;;1.40;86.60;;;;;;5047568;28;19911;-77
2022/03/01 01:16:03;;;;;;;;;;;1.40;87.30;;;;;;5050342;28;20075;-77
2022/03/01 01:18:28;;;;;;;7.03;1.90;;;1.40;87.30;;;;;;5048608;28;19936;-77
2022/03/01 01:20:54;;;;;;;;;;;1.40;87.10;;;;;;5048989;28;20061;-77
2022/03/01 01:23:20;;;;;;;7.53;2.20;;;1.40;87.90;;;;;;5050386;28;19947;-79
2022/03/01 01:25:45;;;;;;;;;;;1.40;88.20;;;;;;5050492;28;20272;-78
2022/03/01 01:28:11;;;;;;;8.50;2.83;;;1.30;88.00;;;;;;5048192;28;19991;-77
2022/03/01 01:30:37;;;;;;;;;;;1.30;88.80;;;;;;5050263;28;20080;-77
2022/03/01 01:33:03;;;;;;;6.00;1.83;;;1.30;88.80;;;;;;5049966;28;19905;-77
2022/03/01 01:35:31;;;;;;;9.57;2.20;;;1.40;88.50;;;;;;5049243;28;20060;-77
2022/03/01 01:37:57;;;;;;;6.72;2.10;;;1.40;88.10;;;;;;5050700;28;20057;-77
2022/03/01 01:40:26;;;;;;;6.85;2.00;;;1.30;88.90;;;;;;5048142;28;20021;-78
2022/03/01 01:42:52;;;;;;;6.65;2.92;;;1.40;87.50;;;;;;5048386;28;20112;-77
2022/03/01 01:45:18;;;;;;;;;;;1.40;86.90;;;;;;5048620;28;20108;-77
2022/03/01 01:47:43;;;;;;;7.78;2.58;;;1.40;87.50;;;;;;5048302;28;19934;-77
2022/03/01 01:50:09;;;;;;;;;;;1.30;87.90;;;;;;5047435;28;20021;-78
2022/03/01 01:52:35;;;;;;;5.65;1.80;;;1.30;87.20;;;;;;5046986;28;20278;-78
2022/03/01 01:55:00;;;;;;;5.35;2.25;;;1.40;86.60;;;;;;5048821;28;20037;-78
2022/03/01 01:57:26;;;;;;;;;;;1.40;86.40;;;;;;5048935;28;20470;-78
2022/03/01 01:59:54;;;;;;;5.55;1.83;;;1.40;86.10;;;;;;5048167;28;19949;-77
2022/03/01 02:02:21;;;;;;;6.13;1.90;;;1.40;86.10;;;;;;5048857;28;20021;-77
2022/03/01 02:04:47;;;;;;;5.07;1.67;;;1.40;86.60;;;;;;5048909;28;20036;-79
2022/03/01 02:07:13;;;;;;;;;;;1.40;87.50;;;;;;5047922;28;20382;-78
2022/03/01 02:09:39;;;;;;;5.68;1.80;;;1.30;86.90;;;;;;5048505;28;19909;-79
2022/03/01 02:12:05;;;;;;;;;;;1.30;87.00;;;;;;5048715;28;20032;-78
2022/03/01 02:14:33;;;;;;;7.80;2.38;;;1.30;86.20;;;;;;5047545;28;19904;-78
2022/03/01 02:17:00;;;;;;;6.60;2.38;;;1.30;86.50;;;;;;5048353;28;20037;-78
2022/03/01 02:19:26;;;;;;;6.15;2.42;;;1.40;85.70;;;;;;5048427;28;20033;-80
2022/03/01 02:21:57;;;;;;;4.45;1.63;;;1.40;86.00;;;;;;5047963;28;20029;-79
2022/03/01 02:24:26;;;;;;;6.63;1.85;;;1.40;86.20;;;;;;5047519;28;20028;-78
2022/03/01 02:26:56;;;;;;;5.38;2.03;;;1.40;85.40;;;;;;5046981;28;20061;-78
2022/03/01 02:29:23;;;;;;;5.13;1.73;;;1.40;84.50;;;;;;5048421;28;20078;-78
2022/03/01 02:31:50;;;;;;;5.32;2.05;;;1.40;83.80;;;;;;5045958;28;20052;-78
2022/03/01 02:34:16;;;;;;;5.70;1.95;;;1.40;83.70;;;;;;5046855;28;20082;-78
2022/03/01 02:36:41;;;;;;;;;;;1.40;84.10;;;;;;5048895;28;20086;-79
2022/03/01 02:39:07;;;;;;;3.92;1.30;;;1.40;83.50;;;;;;5047779;28;20334;-78
2022/03/01 02:41:36;;;;;;;;;;;1.40;83.80;;;;;;5048258;28;20024;-78
2022/03/01 02:44:02;;;;;;;6.00;1.38;;;1.40;83.30;;;;;;5046958;28;19916;-78
2022/03/01 02:46:27;;;;;;;5.13;1.58;;;1.50;84.10;;;;;;5046517;28;20611;-78
2022/03/01 02:48:53;;;;;;;;;;;1.40;84.10;;;;;;5048921;28;20190;-79
2022/03/01 02:51:19;;;;;;;3.30;1.25;;;1.30;84.70;;;;;;5046483;28;19917;-79
2022/03/01 02:53:44;;;;;;;;;;;1.30;85.70;;;;;;5047741;28;20356;-78
2022/03/01 02:56:10;;;;;;;7.72;1.70;;;1.30;86.10;;;;;;5047015;28;19908;-79
2022/03/01 02:58:35;;;;;;;;;;;1.30;86.60;;;;;;5047691;28;20020;-78
2022/03/01 03:01:01;;;;;;;10.00;2.30;;;1.30;87.10;;;;;;5046268;28;19912;-78
2022/03/01 03:03:26;;;;;;;;;;;1.30;86.40;;;;;;5047229;28;20481;-78
2022/03/01 03:05:52;;;;;;;9.10;1.95;;;1.40;85.60;;;;;;5047559;28;20003;-78
2022/03/01 03:08:18;;;;;;;;;;;1.40;85.10;;;;;;5046846;28;20060;-78
2022/03/01 03:10:43;;;;;;;5.32;1.95;;;1.30;84.90;;;;;;5045629;28;19924;-78
2022/03/01 03:13:09;;;;;;;;;;;1.40;84.00;;;;;;5048297;28;20082;-79
2022/03/01 03:15:35;;;;;;;7.47;1.85;;;1.40;83.10;;;;;;5047917;28;20287;-79
2022/03/01 03:18:01;;;;;;;;;;;1.50;82.00;;;;;;5046989;28;20079;-78
2022/03/01 03:20:27;;;;;;;4.90;1.60;;;1.50;81.10;;;;;;5046699;28;19905;-78
2022/03/01 03:22:52;;;;;;;;;;;1.50;81.00;;;;;;5046547;28;20031;-78
2022/03/01 03:25:18;;;;;;;3.83;1.42;;;1.50;80.60;;;;;;5046250;28;19912;-78
2022/03/01 03:27:43;;;;;;;;;;;1.50;80.20;;;;;;5046747;28;20021;-77
2022/03/01 03:30:10;;;;;;;4.88;1.35;;;1.50;79.80;;;;;;5047484;28;19956;-77
2022/03/01 03:32:36;;;;;;;4.85;1.40;;;1.60;78.20;;;;;;5046087;28;20033;-78
2022/03/01 03:35:02;;;;;;;;;;;1.60;76.80;;;;;;5045892;28;20090;-77
2022/03/01 03:37:28;;;;;;;5.38;1.63;;;1.60;76.70;;;;;;5045915;28;19995;-78
2022/03/01 03:39:54;;;;;;;3.40;1.55;;;1.60;76.10;;;;;;5047523;28;20111;-78
2022/03/01 03:42:19;;;;;;;4.13;1.50;;;1.60;75.90;;;;;;5047649;28;20029;-77
2022/03/01 03:44:45;;;;;;;;;;;1.60;75.60;;;;;;5045079;28;20041;-78
2022/03/01 03:47:11;;;;;;;6.05;1.52;;;1.60;75.50;;;;;;5047104;28;19973;-77
2022/03/01 03:49:37;;;;;;;;;;;1.60;76.10;;;;;;5048333;28;20115;-78
2022/03/01 03:52:04;;;;;;;2.88;1.20;;;1.60;75.90;;;;;;5048246;28;19986;-77
2022/03/01 03:54:30;;;;;;;6.55;1.73;;;1.50;76.20;;;;;;5045831;28;20115;-78
2022/03/01 03:56:56;;;;;;;;;;;1.50;76.20;;;;;;5046826;28;20132;-77
2022/03/01 03:59:21;;;;;;;8.75;2.28;;;1.60;75.60;;;;;;5045943;28;20029;-77
2022/03/01 04:01:47;;;;;;;;;;;1.60;75.90;;;;;;5048227;28;20488;-77
2022/03/01 04:04:13;;;;;;;6.75;2.28;;;1.60;76.30;;;;;;5046753;28;19962;-77
2022/03/01 04:06:39;;;;;;;3.95;1.58;;;1.50;76.70;;;;;;5048533;28;20513;-77
2022/03/01 04:09:05;;;;;;;;;;;1.60;76.20;;;;;;5049581;28;20033;-78
2022/03/01 04:11:30;;;;;;;5.80;1.80;;;1.50;76.50;;;;;;5047907;28;20051;-77
2022/03/01 04:13:57;;;;;;;;;;;1.40;76.80;;;;;;5046824;28;20140;-77
2022/03/01 04:16:22;;;;;;;4.75;1.40;;;1.40;76.80;;;;;;5045686;28;19911;-76
2022/03/01 04:18:48;;;;;;;;;;;1.50;76.90;;;;;;5045243;28;20033;-77
2022/03/01 04:21:14;;;;;;;4.78;0.98;;;1.40;76.90;;;;;;5046522;28;19911;-77
2022/03/01 04:23:40;;;;;;;2.88;1.15;;;1.30;77.60;;;;;;5045278;28;20029;-77
2022/03/01 04:26:06;;;;;;;;;;;1.40;77.40;;;;;;5046912;28;20036;-77
2022/03/01 04:28:32;;;;;;;6.05;1.88;;;1.40;76.80;;;;;;5047276;28;19909;-77
2022/03/01 04:30:58;;;;;;;5.03;1.38;;;1.50;76.60;;;;;;5044813;28;20041;-77
2022/03/01 04:33:23;;;;;;;;;;;1.40;76.90;;;;;;5045457;28;20449;-77
2022/03/01 04:35:49;;;;;;;6.25;1.77;;;1.40;76.00;;;;;;5044719;28;19909;-77
2022/03/01 04:38:15;;;;;;;3.75;1.63;;;1.40;76.90;;;;;;5046578;28;20090;-77
2022/03/01 04:40:41;;;;;;;;;;;1.40;77.20;;;;;;5045063;28;20025;-77
2022/03/01 04:43:06;;;;;;;5.18;1.17;;;1.40;76.80;;;;;;5045050;28;19954;-77
2022/03/01 04:45:32;;;;;;;;;;;1.30;76.60;;;;;;5047764;28;20098;-77
2022/03/01 04:47:59;;;;;;;5.15;1.50;;;1.40;76.30;;;;;;5049532;28;20385;-78
2022/03/01 04:50:25;;;;;;;4.00;1.70;;;1.40;75.30;;;;;;5050035;28;20037;-76
2022/03/01 04:52:50;;;;;;;;;;;1.40;75.90;;;;;;5049397;28;20539;-77
2022/03/01 04:55:16;;;;;;;7.10;1.20;;;1.40;76.10;;;;;;5048447;28;19911;-78
2022/03/01 04:57:43;;;;;;;;;;;1.40;75.10;;;;;;5049009;28;20116;-78
2022/03/01 05:00:10;;;;;;;7.20;1.93;;;1.30;75.70;;;;;;5048467;28;19967;-77
2022/03/01 05:02:38;;;;;;;4.25;1.40;;;1.30;76.30;;;;;;5048614;28;20057;-77
2022/03/01 05:05:04;;;;;;;4.60;1.55;;;1.30;75.50;;;;;;5048474;28;20031;-77
2022/03/01 05:07:30;;;;;;;4.05;1.00;;;1.30;75.30;;;;;;5048037;28;20477;-77
2022/03/01 05:09:55;;;;;;;;;;;1.30;75.30;;;;;;5049456;28;20021;-77
2022/03/01 05:12:21;;;;;;;4.53;1.30;;;1.20;75.40;;;;;;5050006;28;20385;-77
2022/03/01 05:14:47;;;;;;;;;;;1.20;75.50;;;;;;5049539;28;20079;-77
2022/03/01 05:17:12;;;;;;;5.35;0.98;;;1.20;76.00;;;;;;5049752;28;20008;-77
2022/03/01 05:19:38;;;;;;;;;;;1.20;75.90;;;;;;5048714;28;20021;-77
2022/03/01 05:22:03;;;;;;;4.80;1.10;;;1.20;75.70;;;;;;5049383;28;19940;-76
2022/03/01 05:24:29;;;;;;;5.35;1.55;;;1.10;75.90;;;;;;5049195;28;20504;-77
2022/03/01 05:26:55;;;;;;;;;;;1.20;76.20;;;;;;5048533;28;20041;-76
2022/03/01 05:29:21;;;;;;;7.35;2.85;;;1.10;76.20;;;;;;5047831;28;19909;-78
2022/03/01 05:31:47;;;;;;;;;;;1.20;76.30;;;;;;5049897;28;20049;-78
2022/03/01 05:34:13;;;;;;;7.68;1.90;;;1.10;76.00;;;;;;5048410;28;19913;-78
2022/03/01 05:36:39;;;;;;;;;;;1.10;76.10;;;;;;5048464;28;20470;-77
2022/03/01 05:39:04;;;;;;;7.05;2.05;;;1.10;75.50;;;;;;5050330;28;20389;-79
2022/03/01 05:41:30;;;;;;;;;;;1.20;74.40;;;;;;5049550;28;20063;-78
2022/03/01 05:43:55;;;;;;;14.05;1.98;;;1.20;74.50;;;;;;5049312;28;19935;-77
2022/03/01 05:46:21;;;;;;;;;;;1.20;74.30;;;;;;5049592;28;20030;-77
2022/03/01 05:48:47;;;;;;;8.25;2.55;;;1.20;73.60;;;;;;5049719;28;19905;-78
2022/03/01 05:51:12;;;;;;;5.63;1.52;;;1.20;73.00;;;;;;5048887;28;20040;-78
2022/03/01 05:53:38;;;;;;;10.95;2.15;;;1.30;71.70;;;;;;5048376;28;20037;-79
2022/03/01 05:56:04;;;;;;;;;;;1.50;70.30;;;;;;5050218;28;20025;-78
2022/03/01 05:58:29;;;;;;;4.45;1.63;;;1.70;68.70;;;;;;5049049;28;20392;-79
2022/03/01 06:00:55;;;;;;;;;;;1.90;66.60;;;;;;5049550;28;20032;-78
2022/03/01 06:03:21;;;;;;;5.63;1.75;;;2.10;64.80;;;;;;5050367;28;19944;-78
2022/03/01 06:05:46;;;;;;;7.60;1.98;;;2.30;63.80;;;;;;5048719;28;20771;-78
2022/03/01 06:08:12;;;;;;;5.93;1.58;;;2.30;62.70;;;;;;5047886;28;20302;-78
2022/03/01 06:10:38;;;;;;;3.75;1.08;;;2.50;61.20;;;;;;5048815;28;20036;-78
2022/03/01 06:13:03;;;;;;;3.75;1.33;;;2.60;60.30;;;;;;5046894;28;20123;-78
2022/03/01 06:15:29;;;;;;;5.70;1.60;;;2.70;59.20;;;;;;5048034;28;20025;-78
2022/03/01 06:17:57;;;;;;;6.18;1.48;;;2.80;58.70;;;;;;5047800;28;20299;-78
2022/03/01 06:20:22;;;;;;;6.32;1.85;;;2.80;58.80;;;;;;5049178;28;20021;-78
2022/03/01 06:22:49;;;;;;;3.47;1.05;;;2.90;58.40;;;;;;5048412;28;20029;-78
2022/03/01 06:25:14;;;;;;;;;;;3.20;57.20;;;;;;5048747;28;20406;-78
2022/03/01 06:27:40;;;;;;;2.63;1.05;;;3.70;55.30;;;;;;5049069;28;19908;-78
2022/03/01 06:30:08;;;;;;;3.53;1.17;;;3.90;54.20;;;;;;5051815;28;20064;-78
2022/03/01 06:32:33;;;;;;;5.20;1.45;;;4.20;53.70;;;;;;5051015;28;20436;-78
2022/03/01 06:34:59;;;;;;;4.15;1.38;;;4.60;52.30;;;;;;5050467;28;20430;-77
2022/03/01 06:37:25;;;;;;;;;;;5.10;50.20;;;;;;5049341;28;20136;-78
2022/03/01 06:39:51;;;;;;;4.63;1.52;;;5.10;50.10;;;;;;5049981;28;19913;-78
2022/03/01 06:42:17;;;;;;;7.38;2.25;;;5.40;49.80;;;;;;5051330;28;20066;-77
2022/03/01 06:44:44;;;;;;;6.68;1.80;;;5.70;49.20;;;;;;5054158;28;20048;-78
2022/03/01 06:47:09;;;;;;;8.55;2.13;;;5.70;49.00;;;;;;5056752;28;20135;-79
2022/03/01 06:49:35;;;;;;;3.60;1.40;;;5.90;48.00;;;;;;5051443;28;20419;-79
2022/03/01 06:52:02;;;;;;;9.57;2.30;;;6.00;48.10;;;;;;5050640;28;20061;-79
2022/03/01 06:54:28;;;;;;;3.75;1.27;;;6.30;47.00;;;;;;5051781;28;20032;-79
2022/03/01 06:56:53;;;;;;;3.90;1.58;;;6.40;47.60;;;;;;5050615;28;20031;-79
2022/03/01 06:59:20;;;;;;;6.03;1.42;;;6.60;46.60;;;;;;5049346;28;20029;-78
2022/03/01 07:01:45;;;;;;;5.25;1.58;;;6.80;46.10;;;;;;5050652;28;20139;-79
2022/03/01 07:04:11;;;;;;;14.35;1.73;;;6.80;46.50;;;;;;5053947;28;20052;-77
2022/03/01 07:06:37;;;;;;;8.70;1.58;;;7.10;45.60;;;;;;5050722;28;20033;-76
2022/03/01 07:09:02;;;;;;;;;;;7.30;45.20;;;;;;5047516;28;20035;-76
2022/03/01 07:11:28;;;;;;;6.30;1.67;;;7.50;44.20;;;;;;5049014;28;19916;-76
2022/03/01 07:13:54;;;;;;;5.93;1.85;;;7.40;44.10;;;;;;5047512;28;20044;-77
2022/03/01 07:16:19;;;;;;;3.85;1.70;;;7.50;43.80;;;;;;5046980;28;20032;-76
2022/03/01 07:18:45;;;;;;;5.10;2.38;;;7.50;43.90;;;;;;5046503;28;20078;-75
2022/03/01 07:21:11;;;;;;;8.20;2.38;;;7.70;44.00;;;;;;5047487;28;20037;-76
2022/03/01 07:23:36;;;;;;;5.25;2.15;;;7.80;43.00;;;;;;5046929;28;20061;-76
2022/03/01 07:26:04;;;;;;;;;;;7.90;43.10;;;;;;5047626;28;20037;-79
2022/03/01 07:28:30;;;;;;;4.07;1.77;;;8.10;42.20;;;;;;5046098;28;19913;-77
2022/03/01 07:30:56;;;;;;;;;;;8.40;41.80;;;;;;5047483;28;20099;-76
2022/03/01 07:33:21;;;;;;;5.95;2.33;;;8.50;40.80;;;;;;5046724;28;19908;-79
2022/03/01 07:35:47;;;;;;;;;;;8.60;40.00;;;;;;5046340;28;20124;-80
2022/03/01 07:38:13;;;;;;;7.10;2.30;;;8.90;38.60;;;;;;5045576;28;20312;-78
2022/03/01 07:40:38;;;;;;;;;;;9.00;38.40;;;;;;5045780;28;20497;-79
2022/03/01 07:43:07;;;;;;;5.47;1.80;;;9.10;38.30;;;;;;5044823;28;19916;-80
2022/03/01 07:45:36;;;;;;;7.55;1.95;;;9.40;37.10;;;;;;5044868;28;20040;-78
2022/03/01 07:48:02;;;;;;;4.93;1.67;;;9.20;37.50;;;;;;5046081;28;20108;-78
2022/03/01 07:50:29;;;;;;;5.18;1.50;;;9.20;37.50;;;;;;5046998;28;20025;-78
2022/03/01 07:52:55;;;;;;;7.55;2.35;;;9.30;37.10;;;;;;5045838;28;20047;-75
2022/03/01 07:55:21;;;;;;;;;;;8.90;37.20;;;;;;5045964;28;20036;-75
2022/03/01 07:57:47;;;;;;;4.30;1.58;;;8.80;35.90;;;;;;5047991;28;19909;-74
2022/03/01 08:00:13;;;;;;;5.85;1.70;;;8.60;36.10;;;;;;5046976;28;20052;-75
2022/03/01 08:02:40;;;;;;;;;;;8.40;36.20;;;;;;5047529;28;20401;-76
2022/03/01 08:05:07;;;;;;;6.00;1.63;;;8.30;36.20;;;;;;5047845;28;19955;-76
2022/03/01 08:07:33;;;;;;;4.82;2.10;;;8.20;36.30;;;;;;5047363;28;20036;-76
2022/03/01 08:09:59;;;;;;;5.40;1.90;;;8.20;36.80;;;;;;5046434;28;20025;-76
2022/03/01 08:12:25;;;;;;;5.10;2.22;;;8.50;35.10;;;;;;5047718;28;20148;-76
2022/03/01 08:14:51;;;;;;;6.68;1.90;;;8.40;36.50;;;;;;5046697;28;20565;-76
2022/03/01 08:17:17;;;;;;;4.82;1.90;;;8.40;37.00;;;;;;5047303;28;20037;-76
2022/03/01 08:19:43;;;;;;;8.30;2.70;;;8.70;37.10;;;;;;5048162;28;20017;-78
2022/03/01 08:22:09;;;;;;;4.45;2.00;;;8.90;36.90;;;;;;5049564;28;20037;-76
2022/03/01 08:24:35;;;;;;;4.78;2.03;;;9.10;36.80;;;;;;5049611;28;20119;-76
2022/03/01 08:27:01;;;;;;;5.28;2.10;;;9.10;36.30;;;;;;5050162;28;20561;-76
2022/03/01 08:29:29;;;;;;;6.55;2.30;;;9.20;35.80;;;;;;5050246;28;20048;-78
2022/03/01 08:31:55;;;;;;;5.22;1.90;;;9.30;36.10;;;;;;5049160;28;20090;-78
2022/03/01 08:34:20;;;;;;;6.75;2.15;;;9.40;35.50;;;;;;5050122;28;20017;-76
2022/03/01 08:36:46;;;;;;;4.95;2.28;;;9.30;35.80;;;;;;5049569;28;20378;-76
2022/03/01 08:39:12;;;;;;;6.35;2.30;;;9.50;35.40;;;;;;5047897;28;20059;-77
2022/03/01 08:41:37;;;;;;;4.88;2.58;;;9.50;35.10;;;;;;5048377;28;20508;-76
2022/03/01 08:44:04;;;;;;;8.70;3.60;;;9.60;35.10;;;;;;5049265;28;20017;-79
2022/03/01 08:46:29;;;;;;;5.18;1.90;;;9.40;35.20;;;;;;5049464;28;20116;-78
2022/03/01 08:48:55;;;;;;;6.03;2.20;;;9.50;34.60;;;;;;5048015;28;20585;-78
2022/03/01 08:51:22;;;;;;;5.72;2.63;;;9.40;34.80;;;;;;5048021;28;20083;-78
2022/03/01 08:53:49;;;;;;;10.52;2.38;;;9.80;34.50;;;;;;5048948;28;20100;-77
2022/03/01 08:56:16;;;;;;;4.20;2.05;;;10.00;33.40;;;;;;5051231;28;20044;-77
2022/03/01 08:58:43;;;;;;;6.80;2.47;;;10.00;34.00;;;;;;5050727;28;20147;-76
2022/03/01 09:01:09;;;;;;;6.68;2.83;;;9.80;33.50;;;;;;5048120;28;20036;-77
2022/03/01 09:03:35;;;;;;;;;;;10.10;34.50;;;;;;5049210;28;20045;-77
2022/03/01 09:06:02;;;;;;;8.05;3.47;;;10.40;32.30;;;;;;5048863;28;20496;-77
2022/03/01 09:08:28;;;;;;;4.63;1.60;;;10.20;31.80;;;;;;5048884;28;20076;-77
2022/03/01 09:10:54;;;;;;;;;;;10.10;31.40;;;;;;5049542;28;20141;-77
2022/03/01 09:13:19;;;;;;;5.93;2.15;;;10.40;30.80;;;;;;5048678;28;19909;-78
2022/03/01 09:15:45;;;;;;;;;;;10.50;31.60;;;;;;5047735;28;20115;-79
2022/03/01 09:18:10;;;;;;;6.03;2.20;;;10.40;31.80;;;;;;5048885;28;20011;-79
2022/03/01 09:20:36;;;;;;;;;;;10.70;30.90;;;;;;5047404;28;20071;-78
2022/03/01 09:23:02;;;;;;;5.10;2.13;;;10.90;30.40;;;;;;5046709;28;19909;-78
2022/03/01 09:25:29;;;;;;;5.40;2.47;;;11.10;30.00;;;;;;5048435;28;20520;-78
2022/03/01 09:27:54;;;;;;;5.63;1.80;;;10.80;30.00;;;;;;5047155;28;20107;-78
2022/03/01 09:30:20;;;;;;;;;;;10.90;29.90;;;;;;5048596;28;20663;-77
2022/03/01 09:32:46;;;;;;;4.80;2.00;;;10.90;30.40;;;;;;5047220;28;20028;-78
2022/03/01 09:35:12;;;;;;;;;;;11.40;28.50;;;;;;5049194;28;20029;-77
2022/03/01 09:37:38;;;;;;;5.70;2.15;;;11.60;27.50;;;;;;5047497;28;20281;-78
2022/03/01 09:40:06;;;;;;;3.80;1.80;;;11.50;28.00;;;;;;5048542;28;20025;-78
2022/03/01 09:42:32;;;;;;;5.40;1.88;;;11.70;28.00;;;;;;5046851;28;20555;-78
2022/03/01 09:44:59;;;;;;;4.72;2.00;;;11.70;27.80;;;;;;5048646;28;20033;-78
2022/03/01 09:47:25;;;;;;;7.40;2.35;;;11.30;28.20;;;;;;5048493;28;20041;-77
2022/03/01 09:49:52;;;;;;;4.65;1.77;;;11.00;28.10;;;;;;5046976;28;20036;-79
2022/03/01 09:52:19;;;;;;;5.03;1.65;;;11.00;27.80;;;;;;5047732;28;20036;-78
2022/03/01 09:54:47;;;;;;;5.03;2.45;;;11.00;28.50;;;;;;5048349;28;20037;-79
2022/03/01 09:57:14;;;;;;;5.60;1.92;;;11.10;28.10;;;;;;5048028;28;20040;-79
2022/03/01 09:59:40;;;;;;;5.40;2.60;;;11.00;27.60;;;;;;5046802;28;20033;-78
2022/03/01 10:02:07;;;;;;;;;;;11.50;27.40;;;;;;5045987;28;20433;-79
2022/03/01 10:04:32;;;;;;;5.72;2.50;;;11.50;27.40;;;;;;5047127;28;19909;-77
2022/03/01 10:06:58;;;;;;;;;;;11.60;27.60;;;;;;5046223;28;20452;-78
2022/03/01 10:09:26;;;;;;;5.75;1.92;;;11.70;26.70;;;;;;5047594;28;19944;-78
2022/03/01 10:11:53;;;;;;;4.47;1.73;;;11.60;27.60;;;;;;5045812;28;20051;-77
2022/03/01 10:14:29;;;;;;;7.65;1.98;;;11.70;27.30;;;;;;5045698;28;20032;-76
2022/03/01 10:16:55;;;;;;;5.72;2.25;;;11.70;27.80;;;;;;5047328;28;20033;-77
2022/03/01 10:19:21;;;;;;;;;;;11.80;27.20;;;;;;5046759;28;20033;-76
2022/03/01 10:21:58;;;;;;;5.15;1.77;;;11.70;27.00;;;;;;5045203;28;20009;-76
2022/03/01 10:24:24;;;;;;;5.47;1.85;;;11.90;26.40;;;;;;5048082;28;20017;-77
2022/03/01 10:26:55;;;;;;;;;;;12.20;26.50;;;;;;5047144;28;20043;-77
2022/03/01 10:29:26;;;;;;;3.53;1.67;;;12.10;24.80;;;;;;5046178;28;19905;-77
2022/03/01 10:31:52;;;;;;;6.22;1.63;;;12.00;25.30;;;;;;5047153;28;20588;-75
2022/03/01 10:34:20;;;;;;;4.32;1.67;;;11.70;25.60;;;;;;5046738;28;20501;-77
2022/03/01 10:36:48;;;;;;;5.75;2.05;;;11.30;27.10;;;;;;5045395;28;20028;-75
2022/03/01 10:39:20;;;;;;;4.28;1.88;;;11.20;27.70;;;;;;5047682;28;20063;-76
2022/03/01 10:41:47;;;;;;;5.50;2.28;;;11.00;26.70;;;;;;5045463;28;20125;-80
2022/03/01 10:44:15;;;;;;;5.97;2.78;;;10.30;28.10;;;;;;5045758;28;20025;-77
2022/03/01 10:46:43;;;;;;;7.78;4.18;;;9.70;28.20;;;;;;5047375;28;20598;-78
2022/03/01 10:49:11;;;;;;;6.30;2.85;;;9.50;28.80;;;;;;5047853;28;20033;-78
2022/03/01 10:51:50;;;;;;;5.05;2.10;;;9.50;29.40;;;;;;5046296;28;20128;-78
2022/03/01 10:54:31;;;;;;;6.68;2.20;;;9.50;28.40;;;;;;5050241;28;20084;-76
2022/03/01 10:56:58;;;;;;;7.13;2.25;;;9.30;29.00;;;;;;5049269;28;20033;-75
2022/03/01 10:59:26;;;;;;;5.60;3.13;;;9.00;29.10;;;;;;5050624;28;20435;-78
2022/03/01 11:01:53;;;;;;;5.47;1.90;;;8.70;29.50;;;;;;5049189;28;20029;-79
2022/03/01 11:04:21;;;;;;;5.35;1.73;;;8.80;28.70;;;;;;5049647;28;20032;-78
2022/03/01 11:06:48;;;;;;;3.45;1.25;;;8.70;28.20;;;;;;5049922;28;20063;-78
2022/03/01 11:09:15;;;;;;;3.85;1.52;;;8.50;29.00;;;;;;5048249;28;20048;-78
2022/03/01 11:11:42;;;;;;;3.80;1.38;;;8.20;29.10;;;;;;5047936;28;20044;-78
2022/03/01 11:14:16;;;;;;;4.20;1.40;;;8.10;29.20;;;;;;5049763;28;20057;-78
2022/03/01 11:17:20;;;;;;;5.38;2.47;;;8.10;28.80;;;;;;5048011;28;20029;-77
2022/03/01 11:20:09;;;;;;;5.80;1.95;;;8.00;29.90;;;;;;5048236;28;20090;-78
2022/03/01 11:22:51;;;;;;;6.30;1.45;;;8.00;29.10;;;;;;5049587;28;20063;-78
2022/03/01 11:25:29;;;;;;;3.63;1.48;;;8.00;28.70;;;;;;5050515;28;20032;-77
2022/03/01 11:28:09;;;;;;;6.68;1.45;;;7.80;28.70;;;;;;5049208;28;20033;-78
2022/03/01 11:30:41;;;;;;;6.85;2.25;;;7.90;27.80;;;;;;5047885;28;20056;-78
2022/03/01 11:33:08;;;;;;;8.90;2.50;;;8.00;29.20;;;;;;5048897;28;20044;-78
2022/03/01 11:35:43;;;;;;;7.20;2.20;;;8.10;29.40;;;;;;5049040;28;20033;-78
2022/03/01 11:38:15;;;;;;;3.88;1.90;;;8.40;28.70;;;;;;5049597;28;20037;-78
2022/03/01 11:40:48;;;;;;;5.55;2.10;;;8.30;30.20;;;;;;5050456;28;20094;-78
2022/03/01 11:43:16;;;;;;;6.50;2.30;;;8.40;30.00;;;;;;5049895;28;20420;-78
2022/03/01 11:45:54;;;;;;;5.78;2.28;;;8.30;30.00;;;;;;5049259;28;20445;-78
2022/03/01 11:48:22;;;;;;;5.00;2.47;;;8.40;30.00;;;;;;5050764;28;20040;-78
2022/03/01 11:50:57;;;;;;;6.75;2.70;;;8.40;29.30;;;;;;5049902;28;20029;-79
2022/03/01 11:53:29;;;;;;;4.75;1.92;;;8.40;30.00;;;;;;5056317;28;20171;-79
2022/03/01 11:56:00;;;;;;;5.45;2.28;;;8.20;29.30;;;;;;5055669;28;20128;-78
2022/03/01 11:58:26;;;;;;;6.03;2.38;;;8.10;29.50;;;;;;5048408;28;20086;-78
2022/03/01 12:00:52;;;;;;;;;;;8.10;29.50;;;;;;5048981;28;20025;-78
2022/03/01 12:03:25;;;;;;;3.28;1.52;;;8.00;28.60;;;;;;5048221;28;19910;-78
2022/03/01 12:05:53;;;;;;;3.50;1.75;;;8.10;28.80;;;;;;5045828;28;20151;-79
2022/03/01 12:08:19;;;;;;;6.25;2.55;;;7.80;29.00;;;;;;5046948;28;20135;-79
2022/03/01 12:10:58;;;;;;;5.82;2.28;;;7.90;29.50;;;;;;5047376;28;20121;-79
2022/03/01 12:13:45;;;;;;;6.50;2.47;;;8.00;29.70;;;;;;5046844;28;20033;-78
2022/03/01 12:16:13;;;;;;;7.57;2.90;;;8.00;29.30;;;;;;5047988;28;20032;-79
2022/03/01 12:18:41;;;;;;;5.75;1.20;;;8.20;28.00;;;;;;5047150;28;20074;-79
2022/03/01 12:21:10;;;;;;;3.47;1.52;;;8.00;27.10;;;;;;5048307;28;20547;-78
2022/03/01 12:23:39;;;;;;;4.13;1.50;;;8.00;26.90;;;;;;5048364;28;20579;-79
2022/03/01 12:26:07;;;;;;;4.97;2.08;;;8.10;28.90;;;;;;5047508;28;20555;-79
2022/03/01 12:28:45;;;;;;;5.07;1.77;;;8.10;28.50;;;;;;5046854;28;20065;-78
2022/03/01 12:31:18;;;;;;;5.13;2.03;;;8.20;27.80;;;;;;5047177;28;20091;-78
2022/03/01 12:33:52;;;;;;;242.27;93.07;;;8.10;27.20;;;;;;5049509;28;20025;-78
2022/03/01 12:36:39;;;;;;;12.63;5.38;;;8.20;27.90;;;;;;5047291;28;20025;-78
2022/03/01 12:39:04;;;;;;;20.15;10.40;;;8.30;27.30;;;;;;5047420;28;20273;-79
2022/03/01 12:41:30;;;;;;;28.95;25.85;;;8.30;27.40;;;;;;5047555;28;20029;-79
2022/03/01 12:43:59;;;;;;;5.75;2.13;;;8.30;27.50;;;;;;5046549;28;20374;-78
2022/03/01 12:46:26;;;;;;;7.70;2.03;;;8.50;27.80;;;;;;5047508;28;20036;-77
2022/03/01 12:48:53;;;;;;;5.45;2.50;;;8.50;27.10;;;;;;5046840;28;20028;-79
2022/03/01 12:51:20;;;;;;;7.50;2.13;;;8.60;26.60;;;;;;5046579;28;20075;-78
2022/03/01 12:54:01;;;;;;;5.38;1.95;;;8.70;26.50;;;;;;5048312;28;20029;-78
2022/03/01 12:56:36;;;;;;;4.50;2.13;;;8.60;26.60;;;;;;5049054;28;20651;-79
2022/03/01 12:59:08;;;;;;;8.75;2.80;;;8.60;27.20;;;;;;5048351;28;20029;-79
2022/03/01 13:01:35;;;;;;;5.20;2.25;;;8.70;26.70;;;;;;5046775;28;20501;-80
2022/03/01 13:04:02;;;;;;;8.88;2.50;;;8.70;26.20;;;;;;5048756;28;20029;-79
2022/03/01 13:06:31;;;;;;;7.70;2.67;;;8.80;25.70;;;;;;5048193;28;20029;-78
2022/03/01 13:08:57;;;;;;;11.68;4.63;;;9.00;25.60;;;;;;5052621;28;20029;-78
2022/03/01 13:11:24;;;;;;;11.63;3.85;;;8.80;26.30;;;;;;5052358;28;20036;-79
2022/03/01 13:13:56;;;;;;;4.88;1.80;;;9.00;26.30;;;;;;5052498;28;20029;-77